PWSweather.com
Personal Weather Stations
Station Observations
BETACDT
Kansas City, MT

Kansas City, MT

Lat: 39.287, Lon: -94.447

Elevation: 961

Station Type:

High Low Average
Temperature 38.1°F3.4°C 22.5°F-5.3°C 27.3°F-2.6°C
Dew Point 34.3°F1.3°C 18.1°F-7.7°C 23.4°F-4.8°C
Winds 19.0 mph 30.6 kmh 1.0 mph 1.6 kmh 7.0 mph SSW11.3 kmh SSW
Wind Gusts -- -- --
Humidity 93% 80% 85%
Pressure 30.10 in1019.3 mb 29.84 in1010.5 mb -
Precipitation 0.00 in0.0 mm - -
Hour Temp Dew Point Humidity Winds Wind Gusts Pressure Precip Precip Rate Daily Precip Total
12:03 AM 38.1°F3.4°C 34.3°F1.3°C 86% 6.0 mph NW9.7 kmh NW -- 29.84 in1010.5 mb 0.00 in0.0 mm 0.00 in0.0 mm 0.00 in0.0 mm
12:08 AM 37.9°F3.3°C 34.1°F1.2°C 86% 8.0 mph W12.9 kmh W -- 29.84 in1010.5 mb 0.00 in0.0 mm 0.00 in0.0 mm 0.00 in0.0 mm
12:13 AM 37.8°F3.2°C 34.0°F1.1°C 86% 9.0 mph W14.5 kmh W -- 29.84 in1010.5 mb 0.00 in0.0 mm 0.00 in0.0 mm 0.00 in0.0 mm
12:18 AM 37.6°F3.1°C 33.8°F1.0°C 86% 11.0 mph W17.7 kmh W -- 29.84 in1010.5 mb 0.00 in0.0 mm 0.00 in0.0 mm 0.00 in0.0 mm
12:23 AM 37.4°F3.0°C 33.6°F0.9°C 86% 7.0 mph NNW11.3 kmh NNW -- 29.84 in1010.5 mb 0.00 in0.0 mm 0.00 in0.0 mm 0.00 in0.0 mm
12:28 AM 37.2°F2.9°C 33.4°F0.8°C 86% 11.0 mph W17.7 kmh W -- 29.84 in1010.5 mb 0.00 in0.0 mm 0.00 in0.0 mm 0.00 in0.0 mm
12:33 AM 37.0°F2.8°C 33.2°F0.7°C 86% 15.0 mph W24.1 kmh W -- 29.84 in1010.5 mb 0.00 in0.0 mm 0.00 in0.0 mm 0.00 in0.0 mm
12:38 AM 36.9°F2.7°C 33.1°F0.6°C 86% 5.0 mph W8.0 kmh W -- 29.84 in1010.5 mb 0.00 in0.0 mm 0.00 in0.0 mm 0.00 in0.0 mm
12:43 AM 36.7°F2.6°C 32.9°F0.5°C 86% 7.0 mph W11.3 kmh W -- 29.84 in1010.5 mb 0.00 in0.0 mm 0.00 in0.0 mm 0.00 in0.0 mm
12:48 AM 36.3°F2.4°C 32.5°F0.3°C 86% 8.0 mph W12.9 kmh W -- 29.85 in1010.8 mb 0.00 in0.0 mm 0.00 in0.0 mm 0.00 in0.0 mm
12:53 AM 36.3°F2.4°C 32.5°F0.3°C 86% 10.0 mph W16.1 kmh W -- 29.85 in1010.8 mb 0.00 in0.0 mm 0.00 in0.0 mm 0.00 in0.0 mm
12:58 AM 35.8°F2.1°C 32.0°F0.0°C 86% 6.0 mph SW9.7 kmh SW -- 29.84 in1010.5 mb 0.00 in0.0 mm 0.00 in0.0 mm 0.00 in0.0 mm
01:03 AM 35.2°F1.8°C 31.4°F-0.3°C 86% 9.0 mph WSW14.5 kmh WSW -- 29.85 in1010.8 mb 0.00 in0.0 mm 0.00 in0.0 mm 0.00 in0.0 mm
01:08 AM 34.9°F1.6°C 31.1°F-0.5°C 86% 11.0 mph WSW17.7 kmh WSW -- 29.85 in1010.8 mb 0.00 in0.0 mm 0.00 in0.0 mm 0.00 in0.0 mm
01:13 AM 34.5°F1.4°C 30.8°F-0.7°C 86% 12.0 mph W19.3 kmh W -- 29.85 in1010.8 mb 0.00 in0.0 mm 0.00 in0.0 mm 0.00 in0.0 mm
01:18 AM 34.3°F1.3°C 30.6°F-0.8°C 86% 9.0 mph NW14.5 kmh NW -- 29.85 in1010.8 mb 0.00 in0.0 mm 0.00 in0.0 mm 0.00 in0.0 mm
01:23 AM 34.0°F1.1°C 30.5°F-0.8°C 87% 13.0 mph W20.9 kmh W -- 29.85 in1010.8 mb 0.00 in0.0 mm 0.00 in0.0 mm 0.00 in0.0 mm
01:28 AM 33.8°F1.0°C 30.3°F-0.9°C 87% 15.0 mph W24.1 kmh W -- 29.85 in1010.8 mb 0.00 in0.0 mm 0.00 in0.0 mm 0.00 in0.0 mm
01:33 AM 33.4°F0.8°C 30.0°F-1.1°C 87% 12.0 mph W19.3 kmh W -- 29.86 in1011.2 mb 0.00 in0.0 mm 0.00 in0.0 mm 0.00 in0.0 mm
01:38 AM 33.3°F0.7°C 30.1°F-1.1°C 88% 14.0 mph W22.5 kmh W -- 29.86 in1011.2 mb 0.00 in0.0 mm 0.00 in0.0 mm 0.00 in0.0 mm
01:43 AM 33.3°F0.7°C 30.1°F-1.1°C 88% 11.0 mph W17.7 kmh W -- 29.87 in1011.5 mb 0.00 in0.0 mm 0.00 in0.0 mm 0.00 in0.0 mm
01:48 AM 33.3°F0.7°C 30.1°F-1.1°C 88% 8.0 mph WSW12.9 kmh WSW -- 29.87 in1011.5 mb 0.00 in0.0 mm 0.00 in0.0 mm 0.00 in0.0 mm
01:53 AM 33.1°F0.6°C 29.9°F-1.2°C 88% 12.0 mph W19.3 kmh W -- 29.87 in1011.5 mb 0.00 in0.0 mm 0.00 in0.0 mm 0.00 in0.0 mm
01:58 AM 32.9°F0.5°C 30.0°F-1.1°C 89% 10.0 mph W16.1 kmh W -- 29.88 in1011.9 mb 0.00 in0.0 mm 0.00 in0.0 mm 0.00 in0.0 mm
02:03 AM 32.7°F0.4°C 29.8°F-1.2°C 89% 11.0 mph W17.7 kmh W -- 29.88 in1011.9 mb 0.00 in0.0 mm 0.00 in0.0 mm 0.00 in0.0 mm
02:08 AM 32.5°F0.3°C 29.6°F-1.3°C 89% 8.0 mph W12.9 kmh W -- 29.88 in1011.9 mb 0.00 in0.0 mm 0.00 in0.0 mm 0.00 in0.0 mm
02:13 AM 32.5°F0.3°C 29.9°F-1.2°C 90% 10.0 mph W16.1 kmh W -- 29.89 in1012.2 mb 0.00 in0.0 mm 0.00 in0.0 mm 0.00 in0.0 mm
02:18 AM 32.4°F0.2°C 29.8°F-1.2°C 90% 10.0 mph W16.1 kmh W -- 29.89 in1012.2 mb 0.00 in0.0 mm 0.00 in0.0 mm 0.00 in0.0 mm
02:23 AM 32.0°F0.0°C 29.4°F-1.4°C 90% 13.0 mph WSW20.9 kmh WSW -- 29.89 in1012.2 mb 0.00 in0.0 mm 0.00 in0.0 mm 0.00 in0.0 mm
02:28 AM 31.5°F-0.3°C 28.9°F-1.7°C 90% 15.0 mph W24.1 kmh W -- 29.89 in1012.2 mb 0.00 in0.0 mm 0.00 in0.0 mm 0.00 in0.0 mm
02:33 AM 31.1°F-0.5°C 28.8°F-1.8°C 91% 9.0 mph E14.5 kmh E -- 29.90 in1012.5 mb 0.00 in0.0 mm 0.00 in0.0 mm 0.00 in0.0 mm
02:38 AM 31.1°F-0.5°C 28.8°F-1.8°C 91% 9.0 mph W14.5 kmh W -- 29.90 in1012.5 mb 0.00 in0.0 mm 0.00 in0.0 mm 0.00 in0.0 mm
02:43 AM 31.1°F-0.5°C 28.8°F-1.8°C 91% 8.0 mph W12.9 kmh W -- 29.90 in1012.5 mb 0.00 in0.0 mm 0.00 in0.0 mm 0.00 in0.0 mm
02:48 AM 30.7°F-0.7°C 28.4°F-2.0°C 91% 10.0 mph W16.1 kmh W -- 29.90 in1012.5 mb 0.00 in0.0 mm 0.00 in0.0 mm 0.00 in0.0 mm
02:53 AM 30.2°F-1.0°C 27.9°F-2.3°C 91% 12.0 mph WSW19.3 kmh WSW -- 29.90 in1012.5 mb 0.00 in0.0 mm 0.00 in0.0 mm 0.00 in0.0 mm
02:58 AM 29.3°F-1.5°C 27.0°F-2.8°C 91% 15.0 mph W24.1 kmh W -- 29.91 in1012.9 mb 0.00 in0.0 mm 0.00 in0.0 mm 0.00 in0.0 mm
03:03 AM 29.1°F-1.6°C 27.1°F-2.7°C 92% 18.0 mph W29.0 kmh W -- 29.91 in1012.9 mb 0.00 in0.0 mm 0.00 in0.0 mm 0.00 in0.0 mm
03:08 AM 28.9°F-1.7°C 26.9°F-2.8°C 92% 19.0 mph 30.6 kmh -- 29.91 in1012.9 mb 0.00 in0.0 mm 0.00 in0.0 mm 0.00 in0.0 mm
03:13 AM 28.9°F-1.7°C 26.9°F-2.8°C 92% 9.0 mph WSW14.5 kmh WSW -- 29.91 in1012.9 mb 0.00 in0.0 mm 0.00 in0.0 mm 0.00 in0.0 mm
03:18 AM 28.9°F-1.7°C 26.9°F-2.8°C 92% 13.0 mph W20.9 kmh W -- 29.92 in1013.2 mb 0.00 in0.0 mm 0.00 in0.0 mm 0.00 in0.0 mm
03:23 AM 28.8°F-1.8°C 26.8°F-2.9°C 92% 10.0 mph NW16.1 kmh NW -- 29.92 in1013.2 mb 0.00 in0.0 mm 0.00 in0.0 mm 0.00 in0.0 mm
03:28 AM 28.8°F-1.8°C 27.0°F-2.8°C 93% 9.0 mph W14.5 kmh W -- 29.93 in1013.5 mb 0.00 in0.0 mm 0.00 in0.0 mm 0.00 in0.0 mm
03:33 AM 28.8°F-1.8°C 27.0°F-2.8°C 93% 15.0 mph NNE24.1 kmh NNE -- 29.93 in1013.5 mb 0.00 in0.0 mm 0.00 in0.0 mm 0.00 in0.0 mm
03:38 AM 28.8°F-1.8°C 27.0°F-2.8°C 93% 12.0 mph E19.3 kmh E -- 29.93 in1013.5 mb 0.00 in0.0 mm 0.00 in0.0 mm 0.00 in0.0 mm
03:43 AM 28.8°F-1.8°C 27.0°F-2.8°C 93% 9.0 mph NNE14.5 kmh NNE -- 29.93 in1013.5 mb 0.00 in0.0 mm 0.00 in0.0 mm 0.00 in0.0 mm
03:48 AM 28.8°F-1.8°C 27.0°F-2.8°C 93% 10.0 mph ESE16.1 kmh ESE -- 29.93 in1013.5 mb 0.00 in0.0 mm 0.00 in0.0 mm 0.00 in0.0 mm
03:53 AM 28.8°F-1.8°C 27.0°F-2.8°C 93% 10.0 mph W16.1 kmh W -- 29.94 in1013.9 mb 0.00 in0.0 mm 0.00 in0.0 mm 0.00 in0.0 mm
03:58 AM 28.8°F-1.8°C 27.0°F-2.8°C 93% 8.0 mph NE12.9 kmh NE -- 29.93 in1013.5 mb 0.00 in0.0 mm 0.00 in0.0 mm 0.00 in0.0 mm
04:03 AM 28.8°F-1.8°C 27.0°F-2.8°C 93% 11.0 mph W17.7 kmh W -- 29.93 in1013.5 mb 0.00 in0.0 mm 0.00 in0.0 mm 0.00 in0.0 mm
04:08 AM 28.4°F-2.0°C 26.6°F-3.0°C 93% 15.0 mph W24.1 kmh W -- 29.93 in1013.5 mb 0.00 in0.0 mm 0.00 in0.0 mm 0.00 in0.0 mm
04:13 AM 28.4°F-2.0°C 26.6°F-3.0°C 93% 12.0 mph WNW19.3 kmh WNW -- 29.93 in1013.5 mb 0.00 in0.0 mm 0.00 in0.0 mm 0.00 in0.0 mm
04:18 AM 28.4°F-2.0°C 26.6°F-3.0°C 93% 11.0 mph NNE17.7 kmh NNE -- 29.93 in1013.5 mb 0.00 in0.0 mm 0.00 in0.0 mm 0.00 in0.0 mm
04:23 AM 28.4°F-2.0°C 26.6°F-3.0°C 93% 10.0 mph W16.1 kmh W -- 29.94 in1013.9 mb 0.00 in0.0 mm 0.00 in0.0 mm 0.00 in0.0 mm
04:28 AM 28.4°F-2.0°C 26.6°F-3.0°C 93% 11.0 mph E17.7 kmh E -- 29.94 in1013.9 mb 0.00 in0.0 mm 0.00 in0.0 mm 0.00 in0.0 mm
04:33 AM 28.4°F-2.0°C 26.6°F-3.0°C 93% 10.0 mph ESE16.1 kmh ESE -- 29.94 in1013.9 mb 0.00 in0.0 mm 0.00 in0.0 mm 0.00 in0.0 mm
04:38 AM 28.4°F-2.0°C 26.4°F-3.1°C 92% 10.0 mph NNE16.1 kmh NNE -- 29.94 in1013.9 mb 0.00 in0.0 mm 0.00 in0.0 mm 0.00 in0.0 mm
04:43 AM 28.6°F-1.9°C 26.3°F-3.2°C 91% 9.0 mph NNW14.5 kmh NNW -- 29.94 in1013.9 mb 0.00 in0.0 mm 0.00 in0.0 mm 0.00 in0.0 mm
04:48 AM 28.6°F-1.9°C 26.0°F-3.3°C 90% 10.0 mph NNW16.1 kmh NNW -- 29.94 in1013.9 mb 0.00 in0.0 mm 0.00 in0.0 mm 0.00 in0.0 mm
04:53 AM 28.8°F-1.8°C 26.2°F-3.2°C 90% 7.0 mph ESE11.3 kmh ESE -- 29.94 in1013.9 mb 0.00 in0.0 mm 0.00 in0.0 mm 0.00 in0.0 mm
04:58 AM 28.9°F-1.7°C 26.3°F-3.2°C 90% 8.0 mph E12.9 kmh E -- 29.94 in1013.9 mb 0.00 in0.0 mm 0.00 in0.0 mm 0.00 in0.0 mm
05:03 AM 29.1°F-1.6°C 26.3°F-3.2°C 89% 8.0 mph SW12.9 kmh SW -- 29.94 in1013.9 mb 0.00 in0.0 mm 0.00 in0.0 mm 0.00 in0.0 mm
05:08 AM 29.1°F-1.6°C 26.3°F-3.2°C 89% 5.0 mph NE8.0 kmh NE -- 29.94 in1013.9 mb 0.00 in0.0 mm 0.00 in0.0 mm 0.00 in0.0 mm
05:13 AM 29.1°F-1.6°C 26.3°F-3.2°C 89% 6.0 mph NE9.7 kmh NE -- 29.94 in1013.9 mb 0.00 in0.0 mm 0.00 in0.0 mm 0.00 in0.0 mm
05:18 AM 29.1°F-1.6°C 26.3°F-3.2°C 89% 11.0 mph W17.7 kmh W -- 29.94 in1013.9 mb 0.00 in0.0 mm 0.00 in0.0 mm 0.00 in0.0 mm
05:23 AM 29.1°F-1.6°C 26.3°F-3.2°C 89% 8.0 mph W12.9 kmh W -- 29.95 in1014.2 mb 0.00 in0.0 mm 0.00 in0.0 mm 0.00 in0.0 mm
05:28 AM 29.1°F-1.6°C 26.3°F-3.2°C 89% 9.0 mph 14.5 kmh -- 29.95 in1014.2 mb 0.00 in0.0 mm 0.00 in0.0 mm 0.00 in0.0 mm
05:33 AM 29.1°F-1.6°C 26.3°F-3.2°C 89% 11.0 mph NW17.7 kmh NW -- 29.95 in1014.2 mb 0.00 in0.0 mm 0.00 in0.0 mm 0.00 in0.0 mm
05:38 AM 29.1°F-1.6°C 26.3°F-3.2°C 89% 12.0 mph NE19.3 kmh NE -- 29.95 in1014.2 mb 0.00 in0.0 mm 0.00 in0.0 mm 0.00 in0.0 mm
05:43 AM 29.1°F-1.6°C 26.3°F-3.2°C 89% 8.0 mph WSW12.9 kmh WSW -- 29.94 in1013.9 mb 0.00 in0.0 mm 0.00 in0.0 mm 0.00 in0.0 mm
05:48 AM 29.1°F-1.6°C 26.3°F-3.2°C 89% 13.0 mph ENE20.9 kmh ENE -- 29.94 in1013.9 mb 0.00 in0.0 mm 0.00 in0.0 mm 0.00 in0.0 mm
05:53 AM 29.3°F-1.5°C 26.5°F-3.1°C 89% 10.0 mph NNE16.1 kmh NNE -- 29.94 in1013.9 mb 0.00 in0.0 mm 0.00 in0.0 mm 0.00 in0.0 mm
05:58 AM 29.3°F-1.5°C 26.5°F-3.1°C 89% 9.0 mph SW14.5 kmh SW -- 29.94 in1013.9 mb 0.00 in0.0 mm 0.00 in0.0 mm 0.00 in0.0 mm
06:03 AM 29.3°F-1.5°C 26.5°F-3.1°C 89% 10.0 mph W16.1 kmh W -- 29.95 in1014.2 mb 0.00 in0.0 mm 0.00 in0.0 mm 0.00 in0.0 mm
06:08 AM 29.3°F-1.5°C 26.5°F-3.1°C 89% 9.0 mph NNE14.5 kmh NNE -- 29.95 in1014.2 mb 0.00 in0.0 mm 0.00 in0.0 mm 0.00 in0.0 mm
06:13 AM 29.5°F-1.4°C 26.7°F-2.9°C 89% 7.0 mph ENE11.3 kmh ENE -- 29.95 in1014.2 mb 0.00 in0.0 mm 0.00 in0.0 mm 0.00 in0.0 mm
06:18 AM 29.5°F-1.4°C 26.7°F-2.9°C 89% 6.0 mph WNW9.7 kmh WNW -- 29.96 in1014.6 mb 0.00 in0.0 mm 0.00 in0.0 mm 0.00 in0.0 mm
06:23 AM 29.5°F-1.4°C 26.7°F-2.9°C 89% 4.0 mph ENE6.4 kmh ENE -- 29.95 in1014.2 mb 0.00 in0.0 mm 0.00 in0.0 mm 0.00 in0.0 mm
06:28 AM 29.5°F-1.4°C 26.7°F-2.9°C 89% 7.0 mph W11.3 kmh W -- 29.95 in1014.2 mb 0.00 in0.0 mm 0.00 in0.0 mm 0.00 in0.0 mm
06:33 AM 29.7°F-1.3°C 26.9°F-2.8°C 89% 8.0 mph W12.9 kmh W -- 29.96 in1014.6 mb 0.00 in0.0 mm 0.00 in0.0 mm 0.00 in0.0 mm
06:38 AM 29.7°F-1.3°C 26.9°F-2.8°C 89% 6.0 mph NNE9.7 kmh NNE -- 29.96 in1014.6 mb 0.00 in0.0 mm 0.00 in0.0 mm 0.00 in0.0 mm
06:43 AM 29.8°F-1.2°C 27.0°F-2.8°C 89% 8.0 mph WSW12.9 kmh WSW -- 29.96 in1014.6 mb 0.00 in0.0 mm 0.00 in0.0 mm 0.00 in0.0 mm
06:48 AM 29.8°F-1.2°C 27.0°F-2.8°C 89% 10.0 mph W16.1 kmh W -- 29.96 in1014.6 mb 0.00 in0.0 mm 0.00 in0.0 mm 0.00 in0.0 mm
06:53 AM 29.8°F-1.2°C 27.0°F-2.8°C 89% 5.0 mph WNW8.0 kmh WNW -- 29.96 in1014.6 mb 0.00 in0.0 mm 0.00 in0.0 mm 0.00 in0.0 mm
06:58 AM 30.0°F-1.1°C 27.2°F-2.7°C 89% 7.0 mph W11.3 kmh W -- 29.97 in1014.9 mb 0.00 in0.0 mm 0.00 in0.0 mm 0.00 in0.0 mm
07:03 AM 30.0°F-1.1°C 27.2°F-2.7°C 89% 9.0 mph W14.5 kmh W -- 29.97 in1014.9 mb 0.00 in0.0 mm 0.00 in0.0 mm 0.00 in0.0 mm
07:08 AM 30.2°F-1.0°C 27.4°F-2.6°C 89% 9.0 mph WSW14.5 kmh WSW -- 29.97 in1014.9 mb 0.00 in0.0 mm 0.00 in0.0 mm 0.00 in0.0 mm
07:13 AM 30.2°F-1.0°C 27.4°F-2.6°C 89% 8.0 mph S12.9 kmh S -- 29.98 in1015.2 mb 0.00 in0.0 mm 0.00 in0.0 mm 0.00 in0.0 mm
07:18 AM 30.2°F-1.0°C 27.4°F-2.6°C 89% 10.0 mph W16.1 kmh W -- 29.98 in1015.2 mb 0.00 in0.0 mm 0.00 in0.0 mm 0.00 in0.0 mm
07:23 AM 30.4°F-0.9°C 27.3°F-2.6°C 88% 7.0 mph W11.3 kmh W -- 29.98 in1015.2 mb 0.00 in0.0 mm 0.00 in0.0 mm 0.00 in0.0 mm
07:33 AM 30.4°F-0.9°C 27.0°F-2.8°C 87% 9.0 mph S14.5 kmh S -- 29.98 in1015.2 mb 0.00 in0.0 mm 0.00 in0.0 mm 0.00 in0.0 mm
07:38 AM 30.4°F-0.9°C 27.0°F-2.8°C 87% 12.0 mph W19.3 kmh W -- 29.97 in1014.9 mb 0.00 in0.0 mm 0.00 in0.0 mm 0.00 in0.0 mm
07:43 AM 30.6°F-0.8°C 27.2°F-2.7°C 87% 7.0 mph WNW11.3 kmh WNW -- 29.97 in1014.9 mb 0.00 in0.0 mm 0.00 in0.0 mm 0.00 in0.0 mm
07:48 AM 30.6°F-0.8°C 27.2°F-2.7°C 87% 11.0 mph WNW17.7 kmh WNW -- 29.98 in1015.2 mb 0.00 in0.0 mm 0.00 in0.0 mm 0.00 in0.0 mm
07:53 AM 30.6°F-0.8°C 27.2°F-2.7°C 87% 8.0 mph W12.9 kmh W -- 29.98 in1015.2 mb 0.00 in0.0 mm 0.00 in0.0 mm 0.00 in0.0 mm
07:58 AM 30.6°F-0.8°C 27.2°F-2.7°C 87% 4.0 mph W6.4 kmh W -- 29.98 in1015.2 mb 0.00 in0.0 mm 0.00 in0.0 mm 0.00 in0.0 mm
08:03 AM 30.6°F-0.8°C 27.2°F-2.7°C 87% 9.0 mph WNW14.5 kmh WNW -- 29.98 in1015.2 mb 0.00 in0.0 mm 0.00 in0.0 mm 0.00 in0.0 mm
08:08 AM 30.6°F-0.8°C 27.2°F-2.7°C 87% 8.0 mph W12.9 kmh W -- 29.98 in1015.2 mb 0.00 in0.0 mm 0.00 in0.0 mm 0.00 in0.0 mm
08:13 AM 30.4°F-0.9°C 27.0°F-2.8°C 87% 7.0 mph W11.3 kmh W -- 29.99 in1015.6 mb 0.00 in0.0 mm 0.00 in0.0 mm 0.00 in0.0 mm
08:18 AM 30.4°F-0.9°C 27.0°F-2.8°C 87% 11.0 mph W17.7 kmh W -- 29.99 in1015.6 mb 0.00 in0.0 mm 0.00 in0.0 mm 0.00 in0.0 mm
08:23 AM 30.4°F-0.9°C 26.7°F-2.9°C 86% 11.0 mph W17.7 kmh W -- 29.99 in1015.6 mb 0.00 in0.0 mm 0.00 in0.0 mm 0.00 in0.0 mm
08:28 AM 30.4°F-0.9°C 26.7°F-2.9°C 86% 14.0 mph W22.5 kmh W -- 29.99 in1015.6 mb 0.00 in0.0 mm 0.00 in0.0 mm 0.00 in0.0 mm
08:33 AM 30.4°F-0.9°C 26.7°F-2.9°C 86% 10.0 mph W16.1 kmh W -- 30.00 in1015.9 mb 0.00 in0.0 mm 0.00 in0.0 mm 0.00 in0.0 mm
08:38 AM 30.4°F-0.9°C 26.7°F-2.9°C 86% 7.0 mph W11.3 kmh W -- 30.00 in1015.9 mb 0.00 in0.0 mm 0.00 in0.0 mm 0.00 in0.0 mm
08:43 AM 30.2°F-1.0°C 26.5°F-3.1°C 86% 7.0 mph WNW11.3 kmh WNW -- 30.00 in1015.9 mb 0.00 in0.0 mm 0.00 in0.0 mm 0.00 in0.0 mm
08:48 AM 30.0°F-1.1°C 26.3°F-3.2°C 86% 10.0 mph W16.1 kmh W -- 30.00 in1015.9 mb 0.00 in0.0 mm 0.00 in0.0 mm 0.00 in0.0 mm
08:53 AM 29.7°F-1.3°C 26.0°F-3.3°C 86% 14.0 mph W22.5 kmh W -- 29.99 in1015.6 mb 0.00 in0.0 mm 0.00 in0.0 mm 0.00 in0.0 mm
08:58 AM 29.7°F-1.3°C 26.0°F-3.3°C 86% 9.0 mph S14.5 kmh S -- 30.00 in1015.9 mb 0.00 in0.0 mm 0.00 in0.0 mm 0.00 in0.0 mm
09:03 AM 29.3°F-1.5°C 25.6°F-3.6°C 86% 9.0 mph W14.5 kmh W -- 30.00 in1015.9 mb 0.00 in0.0 mm 0.00 in0.0 mm 0.00 in0.0 mm
09:08 AM 29.1°F-1.6°C 25.4°F-3.7°C 86% 11.0 mph W17.7 kmh W -- 30.00 in1015.9 mb 0.00 in0.0 mm 0.00 in0.0 mm 0.00 in0.0 mm
09:13 AM 28.9°F-1.7°C 25.2°F-3.8°C 86% 10.0 mph W16.1 kmh W -- 30.00 in1015.9 mb 0.00 in0.0 mm 0.00 in0.0 mm 0.00 in0.0 mm
09:18 AM 28.8°F-1.8°C 25.2°F-3.8°C 86% 12.0 mph WNW19.3 kmh WNW -- 30.00 in1015.9 mb 0.00 in0.0 mm 0.00 in0.0 mm 0.00 in0.0 mm
09:23 AM 28.6°F-1.9°C 25.0°F-3.9°C 86% 10.0 mph W16.1 kmh W -- 30.00 in1015.9 mb 0.00 in0.0 mm 0.00 in0.0 mm 0.00 in0.0 mm
09:28 AM 28.6°F-1.9°C 25.0°F-3.9°C 86% 11.0 mph WSW17.7 kmh WSW -- 30.00 in1015.9 mb 0.00 in0.0 mm 0.00 in0.0 mm 0.00 in0.0 mm
09:33 AM 28.6°F-1.9°C 25.0°F-3.9°C 86% 6.0 mph W9.7 kmh W -- 30.01 in1016.3 mb 0.00 in0.0 mm 0.00 in0.0 mm 0.00 in0.0 mm
09:38 AM 28.2°F-2.1°C 24.6°F-4.1°C 86% 9.0 mph W14.5 kmh W -- 30.01 in1016.3 mb 0.00 in0.0 mm 0.00 in0.0 mm 0.00 in0.0 mm
09:43 AM 27.7°F-2.4°C 24.1°F-4.4°C 86% 9.0 mph W14.5 kmh W -- 30.01 in1016.3 mb 0.00 in0.0 mm 0.00 in0.0 mm 0.00 in0.0 mm
09:48 AM 27.7°F-2.4°C 24.1°F-4.4°C 86% 10.0 mph SW16.1 kmh SW -- 30.01 in1016.3 mb 0.00 in0.0 mm 0.00 in0.0 mm 0.00 in0.0 mm
09:53 AM 27.5°F-2.5°C 23.9°F-4.5°C 86% 9.0 mph W14.5 kmh W -- 30.02 in1016.6 mb 0.00 in0.0 mm 0.00 in0.0 mm 0.00 in0.0 mm
09:58 AM 27.3°F-2.6°C 23.7°F-4.6°C 86% 8.0 mph WSW12.9 kmh WSW -- 30.02 in1016.6 mb 0.00 in0.0 mm 0.00 in0.0 mm 0.00 in0.0 mm
10:03 AM 27.1°F-2.7°C 23.5°F-4.7°C 86% 11.0 mph W17.7 kmh W -- 30.01 in1016.3 mb 0.00 in0.0 mm 0.00 in0.0 mm 0.00 in0.0 mm
10:08 AM 26.8°F-2.9°C 23.2°F-4.9°C 86% 7.0 mph WSW11.3 kmh WSW -- 30.02 in1016.6 mb 0.00 in0.0 mm 0.00 in0.0 mm 0.00 in0.0 mm
10:13 AM 26.6°F-3.0°C 23.0°F-5.0°C 86% 11.0 mph 17.7 kmh -- 30.02 in1016.6 mb 0.00 in0.0 mm 0.00 in0.0 mm 0.00 in0.0 mm
10:18 AM 27.0°F-2.8°C 23.4°F-4.8°C 86% 6.0 mph NNE9.7 kmh NNE -- 30.01 in1016.3 mb 0.00 in0.0 mm 0.00 in0.0 mm 0.00 in0.0 mm
10:23 AM 26.6°F-3.0°C 23.0°F-5.0°C 86% 7.0 mph W11.3 kmh W -- 30.02 in1016.6 mb 0.00 in0.0 mm 0.00 in0.0 mm 0.00 in0.0 mm
10:28 AM 26.6°F-3.0°C 23.0°F-5.0°C 86% 5.0 mph W8.0 kmh W -- 30.02 in1016.6 mb 0.00 in0.0 mm 0.00 in0.0 mm 0.00 in0.0 mm
10:33 AM 26.4°F-3.1°C 22.5°F-5.3°C 85% 9.0 mph W14.5 kmh W -- 30.02 in1016.6 mb 0.00 in0.0 mm 0.00 in0.0 mm 0.00 in0.0 mm
10:38 AM 26.2°F-3.2°C 22.3°F-5.4°C 85% 10.0 mph WNW16.1 kmh WNW -- 30.02 in1016.6 mb 0.00 in0.0 mm 0.00 in0.0 mm 0.00 in0.0 mm
10:43 AM 26.1°F-3.3°C 22.2°F-5.4°C 85% 7.0 mph WSW11.3 kmh WSW -- 30.02 in1016.6 mb 0.00 in0.0 mm 0.00 in0.0 mm 0.00 in0.0 mm
10:48 AM 25.7°F-3.5°C 21.8°F-5.7°C 85% 9.0 mph W14.5 kmh W -- 30.03 in1016.9 mb 0.00 in0.0 mm 0.00 in0.0 mm 0.00 in0.0 mm
10:53 AM 25.7°F-3.5°C 21.8°F-5.7°C 85% 9.0 mph W14.5 kmh W -- 30.03 in1016.9 mb 0.00 in0.0 mm 0.00 in0.0 mm 0.00 in0.0 mm
10:58 AM 25.7°F-3.5°C 21.8°F-5.7°C 85% 10.0 mph WSW16.1 kmh WSW -- 30.03 in1016.9 mb 0.00 in0.0 mm 0.00 in0.0 mm 0.00 in0.0 mm
11:03 AM 25.7°F-3.5°C 21.8°F-5.7°C 85% 7.0 mph WSW11.3 kmh WSW -- 30.03 in1016.9 mb 0.00 in0.0 mm 0.00 in0.0 mm 0.00 in0.0 mm
11:08 AM 25.5°F-3.6°C 21.6°F-5.8°C 85% 5.0 mph W8.0 kmh W -- 30.03 in1016.9 mb 0.00 in0.0 mm 0.00 in0.0 mm 0.00 in0.0 mm
11:13 AM 26.1°F-3.3°C 22.2°F-5.4°C 85% 6.0 mph W9.7 kmh W -- 30.03 in1016.9 mb 0.00 in0.0 mm 0.00 in0.0 mm 0.00 in0.0 mm
11:18 AM 25.9°F-3.4°C 22.0°F-5.6°C 85% 6.0 mph WNW9.7 kmh WNW -- 30.02 in1016.6 mb 0.00 in0.0 mm 0.00 in0.0 mm 0.00 in0.0 mm
11:23 AM 26.1°F-3.3°C 22.2°F-5.4°C 85% 6.0 mph W9.7 kmh W -- 30.03 in1016.9 mb 0.00 in0.0 mm 0.00 in0.0 mm 0.00 in0.0 mm
11:28 AM 26.1°F-3.3°C 21.9°F-5.6°C 84% 7.0 mph WNW11.3 kmh WNW -- 30.02 in1016.6 mb 0.00 in0.0 mm 0.00 in0.0 mm 0.00 in0.0 mm
11:33 AM 26.1°F-3.3°C 21.9°F-5.6°C 84% 4.0 mph 6.4 kmh -- 30.03 in1016.9 mb 0.00 in0.0 mm 0.00 in0.0 mm 0.00 in0.0 mm
11:38 AM 25.9°F-3.4°C 21.7°F-5.7°C 84% 5.0 mph NNE8.0 kmh NNE -- 30.03 in1016.9 mb 0.00 in0.0 mm 0.00 in0.0 mm 0.00 in0.0 mm
11:43 AM 26.1°F-3.3°C 21.9°F-5.6°C 84% 5.0 mph W8.0 kmh W -- 30.03 in1016.9 mb 0.00 in0.0 mm 0.00 in0.0 mm 0.00 in0.0 mm
11:48 AM 26.1°F-3.3°C 21.9°F-5.6°C 84% 8.0 mph WSW12.9 kmh WSW -- 30.03 in1016.9 mb 0.00 in0.0 mm 0.00 in0.0 mm 0.00 in0.0 mm
11:53 AM 26.1°F-3.3°C 21.9°F-5.6°C 84% 6.0 mph W9.7 kmh W -- 30.03 in1016.9 mb 0.00 in0.0 mm 0.00 in0.0 mm 0.00 in0.0 mm
11:58 AM 26.2°F-3.2°C 22.0°F-5.6°C 84% 5.0 mph W8.0 kmh W -- 30.03 in1016.9 mb 0.00 in0.0 mm 0.00 in0.0 mm 0.00 in0.0 mm
12:03 PM 26.1°F-3.3°C 21.9°F-5.6°C 84% 7.0 mph W11.3 kmh W -- 30.03 in1016.9 mb 0.00 in0.0 mm 0.00 in0.0 mm 0.00 in0.0 mm
12:08 PM 26.1°F-3.3°C 21.9°F-5.6°C 84% 7.0 mph WSW11.3 kmh WSW -- 30.03 in1016.9 mb 0.00 in0.0 mm 0.00 in0.0 mm 0.00 in0.0 mm
12:13 PM 26.1°F-3.3°C 21.9°F-5.6°C 84% 5.0 mph WSW8.0 kmh WSW -- 30.03 in1016.9 mb 0.00 in0.0 mm 0.00 in0.0 mm 0.00 in0.0 mm
12:18 PM 26.4°F-3.1°C 22.0°F-5.6°C 83% 7.0 mph W11.3 kmh W -- 30.03 in1016.9 mb 0.00 in0.0 mm 0.00 in0.0 mm 0.00 in0.0 mm
12:23 PM 27.0°F-2.8°C 22.5°F-5.3°C 83% 7.0 mph W11.3 kmh W -- 30.03 in1016.9 mb 0.00 in0.0 mm 0.00 in0.0 mm 0.00 in0.0 mm
12:28 PM 26.8°F-2.9°C 22.1°F-5.5°C 82% 6.0 mph W9.7 kmh W -- 30.03 in1016.9 mb 0.00 in0.0 mm 0.00 in0.0 mm 0.00 in0.0 mm
12:33 PM 26.8°F-2.9°C 22.1°F-5.5°C 82% 8.0 mph W12.9 kmh W -- 30.03 in1016.9 mb 0.00 in0.0 mm 0.00 in0.0 mm 0.00 in0.0 mm
12:38 PM 27.0°F-2.8°C 22.0°F-5.6°C 81% 9.0 mph W14.5 kmh W -- 30.03 in1016.9 mb 0.00 in0.0 mm 0.00 in0.0 mm 0.00 in0.0 mm
12:43 PM 27.1°F-2.7°C 22.1°F-5.5°C 81% 10.0 mph W16.1 kmh W -- 30.03 in1016.9 mb 0.00 in0.0 mm 0.00 in0.0 mm 0.00 in0.0 mm
12:48 PM 27.3°F-2.6°C 22.3°F-5.4°C 81% 12.0 mph W19.3 kmh W -- 30.03 in1016.9 mb 0.00 in0.0 mm 0.00 in0.0 mm 0.00 in0.0 mm
12:53 PM 27.3°F-2.6°C 22.3°F-5.4°C 81% 13.0 mph W20.9 kmh W -- 30.03 in1016.9 mb 0.00 in0.0 mm 0.00 in0.0 mm 0.00 in0.0 mm
12:58 PM 27.3°F-2.6°C 22.3°F-5.4°C 81% 5.0 mph W8.0 kmh W -- 30.03 in1016.9 mb 0.00 in0.0 mm 0.00 in0.0 mm 0.00 in0.0 mm
01:03 PM 27.3°F-2.6°C 22.0°F-5.6°C 80% 10.0 mph WSW16.1 kmh WSW -- 30.03 in1016.9 mb 0.00 in0.0 mm 0.00 in0.0 mm 0.00 in0.0 mm
01:08 PM 27.3°F-2.6°C 22.0°F-5.6°C 80% 12.0 mph W19.3 kmh W -- 30.03 in1016.9 mb 0.00 in0.0 mm 0.00 in0.0 mm 0.00 in0.0 mm
01:13 PM 27.3°F-2.6°C 22.0°F-5.6°C 80% 8.0 mph WNW12.9 kmh WNW -- 30.03 in1016.9 mb 0.00 in0.0 mm 0.00 in0.0 mm 0.00 in0.0 mm
01:18 PM 27.7°F-2.4°C 22.4°F-5.3°C 80% 10.0 mph W16.1 kmh W -- 30.02 in1016.6 mb 0.00 in0.0 mm 0.00 in0.0 mm 0.00 in0.0 mm
01:23 PM 27.7°F-2.4°C 22.4°F-5.3°C 80% 8.0 mph W12.9 kmh W -- 30.02 in1016.6 mb 0.00 in0.0 mm 0.00 in0.0 mm 0.00 in0.0 mm
01:28 PM 27.7°F-2.4°C 22.4°F-5.3°C 80% 6.0 mph WSW9.7 kmh WSW -- 30.02 in1016.6 mb 0.00 in0.0 mm 0.00 in0.0 mm 0.00 in0.0 mm
01:33 PM 27.9°F-2.3°C 22.5°F-5.3°C 80% 9.0 mph W14.5 kmh W -- 30.02 in1016.6 mb 0.00 in0.0 mm 0.00 in0.0 mm 0.00 in0.0 mm
01:38 PM 27.7°F-2.4°C 22.4°F-5.3°C 80% 9.0 mph SW14.5 kmh SW -- 30.01 in1016.3 mb 0.00 in0.0 mm 0.00 in0.0 mm 0.00 in0.0 mm
01:43 PM 27.7°F-2.4°C 22.4°F-5.3°C 80% 7.0 mph W11.3 kmh W -- 30.01 in1016.3 mb 0.00 in0.0 mm 0.00 in0.0 mm 0.00 in0.0 mm
01:48 PM 27.5°F-2.5°C 22.2°F-5.4°C 80% 8.0 mph NE12.9 kmh NE -- 30.01 in1016.3 mb 0.00 in0.0 mm 0.00 in0.0 mm 0.00 in0.0 mm
01:53 PM 27.7°F-2.4°C 22.4°F-5.3°C 80% 9.0 mph W14.5 kmh W -- 30.01 in1016.3 mb 0.00 in0.0 mm 0.00 in0.0 mm 0.00 in0.0 mm
01:58 PM 27.7°F-2.4°C 22.4°F-5.3°C 80% 9.0 mph W14.5 kmh W -- 30.01 in1016.3 mb 0.00 in0.0 mm 0.00 in0.0 mm 0.00 in0.0 mm
02:03 PM 27.1°F-2.7°C 21.8°F-5.7°C 80% 5.0 mph W8.0 kmh W -- 30.02 in1016.6 mb 0.00 in0.0 mm 0.00 in0.0 mm 0.00 in0.0 mm
02:08 PM 27.1°F-2.7°C 21.8°F-5.7°C 80% 9.0 mph W14.5 kmh W -- 30.02 in1016.6 mb 0.00 in0.0 mm 0.00 in0.0 mm 0.00 in0.0 mm
02:13 PM 27.3°F-2.6°C 22.0°F-5.6°C 80% 6.0 mph W9.7 kmh W -- 30.02 in1016.6 mb 0.00 in0.0 mm 0.00 in0.0 mm 0.00 in0.0 mm
02:18 PM 27.1°F-2.7°C 21.8°F-5.7°C 80% 8.0 mph W12.9 kmh W -- 30.01 in1016.3 mb 0.00 in0.0 mm 0.00 in0.0 mm 0.00 in0.0 mm
02:23 PM 27.3°F-2.6°C 22.0°F-5.6°C 80% 6.0 mph W9.7 kmh W -- 30.02 in1016.6 mb 0.00 in0.0 mm 0.00 in0.0 mm 0.00 in0.0 mm
02:28 PM 27.5°F-2.5°C 22.2°F-5.4°C 80% 3.0 mph W4.8 kmh W -- 30.01 in1016.3 mb 0.00 in0.0 mm 0.00 in0.0 mm 0.00 in0.0 mm
02:33 PM 27.5°F-2.5°C 22.2°F-5.4°C 80% 5.0 mph WNW8.0 kmh WNW -- 30.00 in1015.9 mb 0.00 in0.0 mm 0.00 in0.0 mm 0.00 in0.0 mm
02:38 PM 27.5°F-2.5°C 22.2°F-5.4°C 80% 5.0 mph W8.0 kmh W -- 30.00 in1015.9 mb 0.00 in0.0 mm 0.00 in0.0 mm 0.00 in0.0 mm
02:43 PM 27.5°F-2.5°C 22.2°F-5.4°C 80% 6.0 mph NNE9.7 kmh NNE -- 30.00 in1015.9 mb 0.00 in0.0 mm 0.00 in0.0 mm 0.00 in0.0 mm
02:48 PM 27.7°F-2.4°C 22.4°F-5.3°C 80% 5.0 mph W8.0 kmh W -- 30.01 in1016.3 mb 0.00 in0.0 mm 0.00 in0.0 mm 0.00 in0.0 mm
02:53 PM 27.3°F-2.6°C 22.0°F-5.6°C 80% 10.0 mph W16.1 kmh W -- 30.01 in1016.3 mb 0.00 in0.0 mm 0.00 in0.0 mm 0.00 in0.0 mm
02:58 PM 27.3°F-2.6°C 22.0°F-5.6°C 80% 6.0 mph W9.7 kmh W -- 30.01 in1016.3 mb 0.00 in0.0 mm 0.00 in0.0 mm 0.00 in0.0 mm
03:03 PM 27.3°F-2.6°C 22.0°F-5.6°C 80% 7.0 mph W11.3 kmh W -- 30.01 in1016.3 mb 0.00 in0.0 mm 0.00 in0.0 mm 0.00 in0.0 mm
03:08 PM 27.5°F-2.5°C 22.2°F-5.4°C 80% 7.0 mph W11.3 kmh W -- 30.02 in1016.6 mb 0.00 in0.0 mm 0.00 in0.0 mm 0.00 in0.0 mm
03:13 PM 27.3°F-2.6°C 22.0°F-5.6°C 80% 7.0 mph W11.3 kmh W -- 30.01 in1016.3 mb 0.00 in0.0 mm 0.00 in0.0 mm 0.00 in0.0 mm
03:18 PM 27.1°F-2.7°C 21.8°F-5.7°C 80% 9.0 mph W14.5 kmh W -- 30.01 in1016.3 mb 0.00 in0.0 mm 0.00 in0.0 mm 0.00 in0.0 mm
03:23 PM 27.0°F-2.8°C 21.7°F-5.7°C 80% 7.0 mph SW11.3 kmh SW -- 30.01 in1016.3 mb 0.00 in0.0 mm 0.00 in0.0 mm 0.00 in0.0 mm
03:28 PM 27.0°F-2.8°C 21.7°F-5.7°C 80% 6.0 mph W9.7 kmh W -- 30.02 in1016.6 mb 0.00 in0.0 mm 0.00 in0.0 mm 0.00 in0.0 mm
03:33 PM 26.8°F-2.9°C 21.5°F-5.8°C 80% 5.0 mph W8.0 kmh W -- 30.02 in1016.6 mb 0.00 in0.0 mm 0.00 in0.0 mm 0.00 in0.0 mm
03:38 PM 26.6°F-3.0°C 21.3°F-5.9°C 80% 7.0 mph W11.3 kmh W -- 30.02 in1016.6 mb 0.00 in0.0 mm 0.00 in0.0 mm 0.00 in0.0 mm
03:43 PM 26.4°F-3.1°C 21.1°F-6.1°C 80% 3.0 mph ESE4.8 kmh ESE -- 30.01 in1016.3 mb 0.00 in0.0 mm 0.00 in0.0 mm 0.00 in0.0 mm
03:48 PM 26.2°F-3.2°C 20.9°F-6.2°C 80% 5.0 mph W8.0 kmh W -- 30.01 in1016.3 mb 0.00 in0.0 mm 0.00 in0.0 mm 0.00 in0.0 mm
03:53 PM 26.2°F-3.2°C 21.2°F-6.0°C 81% 5.0 mph WNW8.0 kmh WNW -- 30.02 in1016.6 mb 0.00 in0.0 mm 0.00 in0.0 mm 0.00 in0.0 mm
03:58 PM 26.2°F-3.2°C 21.2°F-6.0°C 81% 3.0 mph SSW4.8 kmh SSW -- 30.01 in1016.3 mb 0.00 in0.0 mm 0.00 in0.0 mm 0.00 in0.0 mm
04:03 PM 26.1°F-3.3°C 21.1°F-6.1°C 81% 7.0 mph WNW11.3 kmh WNW -- 30.01 in1016.3 mb 0.00 in0.0 mm 0.00 in0.0 mm 0.00 in0.0 mm
04:08 PM 25.9°F-3.4°C 20.9°F-6.2°C 81% 6.0 mph ENE9.7 kmh ENE -- 30.02 in1016.6 mb 0.00 in0.0 mm 0.00 in0.0 mm 0.00 in0.0 mm
04:13 PM 25.9°F-3.4°C 21.2°F-6.0°C 82% 3.0 mph W4.8 kmh W -- 30.02 in1016.6 mb 0.00 in0.0 mm 0.00 in0.0 mm 0.00 in0.0 mm
04:18 PM 25.9°F-3.4°C 21.2°F-6.0°C 82% 3.0 mph W4.8 kmh W -- 30.02 in1016.6 mb 0.00 in0.0 mm 0.00 in0.0 mm 0.00 in0.0 mm
04:23 PM 25.9°F-3.4°C 21.2°F-6.0°C 82% 8.0 mph W12.9 kmh W -- 30.02 in1016.6 mb 0.00 in0.0 mm 0.00 in0.0 mm 0.00 in0.0 mm
04:28 PM 25.7°F-3.5°C 21.0°F-6.1°C 82% 8.0 mph W12.9 kmh W -- 30.02 in1016.6 mb 0.00 in0.0 mm 0.00 in0.0 mm 0.00 in0.0 mm
04:33 PM 25.5°F-3.6°C 20.8°F-6.2°C 82% 6.0 mph W9.7 kmh W -- 30.02 in1016.6 mb 0.00 in0.0 mm 0.00 in0.0 mm 0.00 in0.0 mm
04:38 PM 25.3°F-3.7°C 20.9°F-6.2°C 83% 6.0 mph W9.7 kmh W -- 30.02 in1016.6 mb 0.00 in0.0 mm 0.00 in0.0 mm 0.00 in0.0 mm
04:43 PM 25.2°F-3.8°C 20.8°F-6.2°C 83% 7.0 mph 11.3 kmh -- 30.03 in1016.9 mb 0.00 in0.0 mm 0.00 in0.0 mm 0.00 in0.0 mm
04:48 PM 24.8°F-4.0°C 20.4°F-6.4°C 83% 6.0 mph W9.7 kmh W -- 30.03 in1016.9 mb 0.00 in0.0 mm 0.00 in0.0 mm 0.00 in0.0 mm
04:53 PM 24.6°F-4.1°C 20.2°F-6.6°C 83% 6.0 mph W9.7 kmh W -- 30.03 in1016.9 mb 0.00 in0.0 mm 0.00 in0.0 mm 0.00 in0.0 mm
04:58 PM 24.4°F-4.2°C 20.3°F-6.5°C 84% 8.0 mph W12.9 kmh W -- 30.03 in1016.9 mb 0.00 in0.0 mm 0.00 in0.0 mm 0.00 in0.0 mm
05:03 PM 24.3°F-4.3°C 20.2°F-6.6°C 84% 6.0 mph WNW9.7 kmh WNW -- 30.03 in1016.9 mb 0.00 in0.0 mm 0.00 in0.0 mm 0.00 in0.0 mm
05:08 PM 24.3°F-4.3°C 20.2°F-6.6°C 84% 4.0 mph W6.4 kmh W -- 30.03 in1016.9 mb 0.00 in0.0 mm 0.00 in0.0 mm 0.00 in0.0 mm
05:13 PM 24.1°F-4.4°C 20.0°F-6.7°C 84% 5.0 mph SW8.0 kmh SW -- 30.03 in1016.9 mb 0.00 in0.0 mm 0.00 in0.0 mm 0.00 in0.0 mm
05:18 PM 23.9°F-4.5°C 19.8°F-6.8°C 84% 6.0 mph WNW9.7 kmh WNW -- 30.03 in1016.9 mb 0.00 in0.0 mm 0.00 in0.0 mm 0.00 in0.0 mm
05:23 PM 23.7°F-4.6°C 19.6°F-6.9°C 84% 6.0 mph NW9.7 kmh NW -- 30.03 in1016.9 mb 0.00 in0.0 mm 0.00 in0.0 mm 0.00 in0.0 mm
05:28 PM 23.7°F-4.6°C 19.6°F-6.9°C 84% 6.0 mph W9.7 kmh W -- 30.03 in1016.9 mb 0.00 in0.0 mm 0.00 in0.0 mm 0.00 in0.0 mm
05:33 PM 23.5°F-4.7°C 19.7°F-6.8°C 85% 5.0 mph W8.0 kmh W -- 30.03 in1016.9 mb 0.00 in0.0 mm 0.00 in0.0 mm 0.00 in0.0 mm
05:38 PM 23.4°F-4.8°C 19.6°F-6.9°C 85% 7.0 mph NNE11.3 kmh NNE -- 30.03 in1016.9 mb 0.00 in0.0 mm 0.00 in0.0 mm 0.00 in0.0 mm
05:43 PM 23.4°F-4.8°C 19.6°F-6.9°C 85% 5.0 mph ESE8.0 kmh ESE -- 30.03 in1016.9 mb 0.00 in0.0 mm 0.00 in0.0 mm 0.00 in0.0 mm
05:48 PM 23.4°F-4.8°C 19.6°F-6.9°C 85% 5.0 mph E8.0 kmh E -- 30.04 in1017.3 mb 0.00 in0.0 mm 0.00 in0.0 mm 0.00 in0.0 mm
05:53 PM 23.4°F-4.8°C 19.6°F-6.9°C 85% 4.0 mph E6.4 kmh E -- 30.04 in1017.3 mb 0.00 in0.0 mm 0.00 in0.0 mm 0.00 in0.0 mm
05:58 PM 23.4°F-4.8°C 19.6°F-6.9°C 85% 6.0 mph NE9.7 kmh NE -- 30.05 in1017.6 mb 0.00 in0.0 mm 0.00 in0.0 mm 0.00 in0.0 mm
06:03 PM 23.2°F-4.9°C 19.4°F-7.0°C 85% 4.0 mph E6.4 kmh E -- 30.05 in1017.6 mb 0.00 in0.0 mm 0.00 in0.0 mm 0.00 in0.0 mm
06:08 PM 23.2°F-4.9°C 19.4°F-7.0°C 85% 4.0 mph W6.4 kmh W -- 30.05 in1017.6 mb 0.00 in0.0 mm 0.00 in0.0 mm 0.00 in0.0 mm
06:13 PM 23.2°F-4.9°C 19.1°F-7.2°C 84% 4.0 mph SSE6.4 kmh SSE -- 30.05 in1017.6 mb 0.00 in0.0 mm 0.00 in0.0 mm 0.00 in0.0 mm
06:18 PM 23.2°F-4.9°C 19.1°F-7.2°C 84% 7.0 mph W11.3 kmh W -- 30.05 in1017.6 mb 0.00 in0.0 mm 0.00 in0.0 mm 0.00 in0.0 mm
06:23 PM 23.2°F-4.9°C 19.1°F-7.2°C 84% 3.0 mph SE4.8 kmh SE -- 30.06 in1017.9 mb 0.00 in0.0 mm 0.00 in0.0 mm 0.00 in0.0 mm
06:28 PM 23.2°F-4.9°C 19.1°F-7.2°C 84% 4.0 mph ENE6.4 kmh ENE -- 30.05 in1017.6 mb 0.00 in0.0 mm 0.00 in0.0 mm 0.00 in0.0 mm
06:33 PM 23.2°F-4.9°C 19.1°F-7.2°C 84% 4.0 mph E6.4 kmh E -- 30.05 in1017.6 mb 0.00 in0.0 mm 0.00 in0.0 mm 0.00 in0.0 mm
06:38 PM 23.2°F-4.9°C 19.1°F-7.2°C 84% 4.0 mph W6.4 kmh W -- 30.05 in1017.6 mb 0.00 in0.0 mm 0.00 in0.0 mm 0.00 in0.0 mm
06:43 PM 23.2°F-4.9°C 19.1°F-7.2°C 84% 3.0 mph NE4.8 kmh NE -- 30.05 in1017.6 mb 0.00 in0.0 mm 0.00 in0.0 mm 0.00 in0.0 mm
06:48 PM 23.2°F-4.9°C 19.1°F-7.2°C 84% 4.0 mph ENE6.4 kmh ENE -- 30.06 in1017.9 mb 0.00 in0.0 mm 0.00 in0.0 mm 0.00 in0.0 mm
06:53 PM 23.2°F-4.9°C 19.1°F-7.2°C 84% 6.0 mph WNW9.7 kmh WNW -- 30.05 in1017.6 mb 0.00 in0.0 mm 0.00 in0.0 mm 0.00 in0.0 mm
06:58 PM 23.2°F-4.9°C 19.1°F-7.2°C 84% 3.0 mph SSE4.8 kmh SSE -- 30.05 in1017.6 mb 0.00 in0.0 mm 0.00 in0.0 mm 0.00 in0.0 mm
07:03 PM 23.2°F-4.9°C 19.1°F-7.2°C 84% 3.0 mph W4.8 kmh W -- 30.05 in1017.6 mb 0.00 in0.0 mm 0.00 in0.0 mm 0.00 in0.0 mm
07:08 PM 23.2°F-4.9°C 19.1°F-7.2°C 84% 4.0 mph ENE6.4 kmh ENE -- 30.05 in1017.6 mb 0.00 in0.0 mm 0.00 in0.0 mm 0.00 in0.0 mm
07:13 PM 23.2°F-4.9°C 19.1°F-7.2°C 84% 2.0 mph ENE3.2 kmh ENE -- 30.05 in1017.6 mb 0.00 in0.0 mm 0.00 in0.0 mm 0.00 in0.0 mm
07:18 PM 23.2°F-4.9°C 19.1°F-7.2°C 84% 2.0 mph W3.2 kmh W -- 30.06 in1017.9 mb 0.00 in0.0 mm 0.00 in0.0 mm 0.00 in0.0 mm
07:23 PM 23.2°F-4.9°C 19.1°F-7.2°C 84% 4.0 mph ESE6.4 kmh ESE -- 30.06 in1017.9 mb 0.00 in0.0 mm 0.00 in0.0 mm 0.00 in0.0 mm
07:28 PM 23.2°F-4.9°C 18.8°F-7.3°C 83% 5.0 mph E8.0 kmh E -- 30.06 in1017.9 mb 0.00 in0.0 mm 0.00 in0.0 mm 0.00 in0.0 mm
07:33 PM 23.2°F-4.9°C 18.8°F-7.3°C 83% 4.0 mph S6.4 kmh S -- 30.06 in1017.9 mb 0.00 in0.0 mm 0.00 in0.0 mm 0.00 in0.0 mm
07:38 PM 23.2°F-4.9°C 18.8°F-7.3°C 83% 3.0 mph W4.8 kmh W -- 30.06 in1017.9 mb 0.00 in0.0 mm 0.00 in0.0 mm 0.00 in0.0 mm
07:43 PM 23.2°F-4.9°C 18.5°F-7.5°C 82% 4.0 mph ESE6.4 kmh ESE -- 30.07 in1018.3 mb 0.00 in0.0 mm 0.00 in0.0 mm 0.00 in0.0 mm
07:48 PM 23.2°F-4.9°C 18.5°F-7.5°C 82% 6.0 mph NE9.7 kmh NE -- 30.07 in1018.3 mb 0.00 in0.0 mm 0.00 in0.0 mm 0.00 in0.0 mm
07:53 PM 23.2°F-4.9°C 18.5°F-7.5°C 82% 4.0 mph NNE6.4 kmh NNE -- 30.06 in1017.9 mb 0.00 in0.0 mm 0.00 in0.0 mm 0.00 in0.0 mm
07:58 PM 23.2°F-4.9°C 18.5°F-7.5°C 82% 5.0 mph NNW8.0 kmh NNW -- 30.06 in1017.9 mb 0.00 in0.0 mm 0.00 in0.0 mm 0.00 in0.0 mm
08:03 PM 23.2°F-4.9°C 18.5°F-7.5°C 82% 3.0 mph 4.8 kmh -- 30.06 in1017.9 mb 0.00 in0.0 mm 0.00 in0.0 mm 0.00 in0.0 mm
08:08 PM 23.2°F-4.9°C 18.5°F-7.5°C 82% 4.0 mph ENE6.4 kmh ENE -- 30.06 in1017.9 mb 0.00 in0.0 mm 0.00 in0.0 mm 0.00 in0.0 mm
08:13 PM 23.0°F-5.0°C 18.3°F-7.6°C 82% 5.0 mph NE8.0 kmh NE -- 30.06 in1017.9 mb 0.00 in0.0 mm 0.00 in0.0 mm 0.00 in0.0 mm
08:18 PM 23.0°F-5.0°C 18.3°F-7.6°C 82% 4.0 mph E6.4 kmh E -- 30.06 in1017.9 mb 0.00 in0.0 mm 0.00 in0.0 mm 0.00 in0.0 mm
08:23 PM 22.8°F-5.1°C 18.1°F-7.7°C 82% 5.0 mph NNE8.0 kmh NNE -- 30.06 in1017.9 mb 0.00 in0.0 mm 0.00 in0.0 mm 0.00 in0.0 mm
08:28 PM 22.8°F-5.1°C 18.1°F-7.7°C 82% 4.0 mph ESE6.4 kmh ESE -- 30.06 in1017.9 mb 0.00 in0.0 mm 0.00 in0.0 mm 0.00 in0.0 mm
08:33 PM 22.8°F-5.1°C 18.1°F-7.7°C 82% 3.0 mph W4.8 kmh W -- 30.06 in1017.9 mb 0.00 in0.0 mm 0.00 in0.0 mm 0.00 in0.0 mm
08:38 PM 22.8°F-5.1°C 18.1°F-7.7°C 82% 3.0 mph WSW4.8 kmh WSW -- 30.06 in1017.9 mb 0.00 in0.0 mm 0.00 in0.0 mm 0.00 in0.0 mm
08:43 PM 22.8°F-5.1°C 18.4°F-7.6°C 83% 2.0 mph SW3.2 kmh SW -- 30.07 in1018.3 mb 0.00 in0.0 mm 0.00 in0.0 mm 0.00 in0.0 mm
08:48 PM 22.6°F-5.2°C 18.2°F-7.7°C 83% 2.0 mph W3.2 kmh W -- 30.07 in1018.3 mb 0.00 in0.0 mm 0.00 in0.0 mm 0.00 in0.0 mm
08:53 PM 22.6°F-5.2°C 18.2°F-7.7°C 83% 3.0 mph NE4.8 kmh NE -- 30.08 in1018.6 mb 0.00 in0.0 mm 0.00 in0.0 mm 0.00 in0.0 mm
08:58 PM 22.6°F-5.2°C 18.2°F-7.7°C 83% 4.0 mph ESE6.4 kmh ESE -- 30.07 in1018.3 mb 0.00 in0.0 mm 0.00 in0.0 mm 0.00 in0.0 mm
09:03 PM 22.6°F-5.2°C 18.2°F-7.7°C 83% 2.0 mph NNE3.2 kmh NNE -- 30.07 in1018.3 mb 0.00 in0.0 mm 0.00 in0.0 mm 0.00 in0.0 mm
09:08 PM 22.6°F-5.2°C 18.2°F-7.7°C 83% 2.0 mph NE3.2 kmh NE -- 30.07 in1018.3 mb 0.00 in0.0 mm 0.00 in0.0 mm 0.00 in0.0 mm
09:13 PM 22.6°F-5.2°C 18.2°F-7.7°C 83% 2.0 mph E3.2 kmh E -- 30.07 in1018.3 mb 0.00 in0.0 mm 0.00 in0.0 mm 0.00 in0.0 mm
09:18 PM 22.5°F-5.3°C 18.1°F-7.7°C 83% 2.0 mph WNW3.2 kmh WNW -- 30.07 in1018.3 mb 0.00 in0.0 mm 0.00 in0.0 mm 0.00 in0.0 mm
09:23 PM 22.5°F-5.3°C 18.1°F-7.7°C 83% 4.0 mph E6.4 kmh E -- 30.07 in1018.3 mb 0.00 in0.0 mm 0.00 in0.0 mm 0.00 in0.0 mm
09:28 PM 22.5°F-5.3°C 18.1°F-7.7°C 83% 2.0 mph E3.2 kmh E -- 30.07 in1018.3 mb 0.00 in0.0 mm 0.00 in0.0 mm 0.00 in0.0 mm
09:33 PM 22.6°F-5.2°C 18.2°F-7.7°C 83% 4.0 mph NW6.4 kmh NW -- 30.07 in1018.3 mb 0.00 in0.0 mm 0.00 in0.0 mm 0.00 in0.0 mm
09:38 PM 22.6°F-5.2°C 18.2°F-7.7°C 83% 4.0 mph SW6.4 kmh SW -- 30.07 in1018.3 mb 0.00 in0.0 mm 0.00 in0.0 mm 0.00 in0.0 mm
09:43 PM 22.6°F-5.2°C 18.2°F-7.7°C 83% 3.0 mph W4.8 kmh W -- 30.07 in1018.3 mb 0.00 in0.0 mm 0.00 in0.0 mm 0.00 in0.0 mm
09:48 PM 22.6°F-5.2°C 18.2°F-7.7°C 83% 2.0 mph E3.2 kmh E -- 30.07 in1018.3 mb 0.00 in0.0 mm 0.00 in0.0 mm 0.00 in0.0 mm
09:53 PM 22.6°F-5.2°C 18.2°F-7.7°C 83% 3.0 mph W4.8 kmh W -- 30.06 in1017.9 mb 0.00 in0.0 mm 0.00 in0.0 mm 0.00 in0.0 mm
09:58 PM 22.6°F-5.2°C 18.2°F-7.7°C 83% 2.0 mph ESE3.2 kmh ESE -- 30.07 in1018.3 mb 0.00 in0.0 mm 0.00 in0.0 mm 0.00 in0.0 mm
10:03 PM 22.5°F-5.3°C 18.1°F-7.7°C 83% 1.0 mph NNE1.6 kmh NNE -- 30.07 in1018.3 mb 0.00 in0.0 mm 0.00 in0.0 mm 0.00 in0.0 mm
10:08 PM 22.5°F-5.3°C 18.1°F-7.7°C 83% 3.0 mph NNE4.8 kmh NNE -- 30.07 in1018.3 mb 0.00 in0.0 mm 0.00 in0.0 mm 0.00 in0.0 mm
10:13 PM 22.5°F-5.3°C 18.1°F-7.7°C 83% 2.0 mph WSW3.2 kmh WSW -- 30.07 in1018.3 mb 0.00 in0.0 mm 0.00 in0.0 mm 0.00 in0.0 mm
10:18 PM 22.5°F-5.3°C 18.1°F-7.7°C 83% 2.0 mph ESE3.2 kmh ESE -- 30.08 in1018.6 mb 0.00 in0.0 mm 0.00 in0.0 mm 0.00 in0.0 mm
10:23 PM 22.5°F-5.3°C 18.1°F-7.7°C 83% 3.0 mph W4.8 kmh W -- 30.08 in1018.6 mb 0.00 in0.0 mm 0.00 in0.0 mm 0.00 in0.0 mm
10:28 PM 22.5°F-5.3°C 18.1°F-7.7°C 83% 3.0 mph 4.8 kmh -- 30.09 in1019.0 mb 0.00 in0.0 mm 0.00 in0.0 mm 0.00 in0.0 mm
10:33 PM 22.5°F-5.3°C 18.1°F-7.7°C 83% 1.0 mph W1.6 kmh W -- 30.08 in1018.6 mb 0.00 in0.0 mm 0.00 in0.0 mm 0.00 in0.0 mm
10:38 PM 22.5°F-5.3°C 18.1°F-7.7°C 83% 4.0 mph ESE6.4 kmh ESE -- 30.09 in1019.0 mb 0.00 in0.0 mm 0.00 in0.0 mm 0.00 in0.0 mm
10:43 PM 22.5°F-5.3°C 18.1°F-7.7°C 83% 4.0 mph WNW6.4 kmh WNW -- 30.09 in1019.0 mb 0.00 in0.0 mm 0.00 in0.0 mm 0.00 in0.0 mm
10:48 PM 22.5°F-5.3°C 18.1°F-7.7°C 83% 2.0 mph NNE3.2 kmh NNE -- 30.10 in1019.3 mb 0.00 in0.0 mm 0.00 in0.0 mm 0.00 in0.0 mm
10:53 PM 22.5°F-5.3°C 18.1°F-7.7°C 83% 1.0 mph 1.6 kmh -- 30.10 in1019.3 mb 0.00 in0.0 mm 0.00 in0.0 mm 0.00 in0.0 mm
10:58 PM 22.5°F-5.3°C 18.1°F-7.7°C 83% 1.0 mph 1.6 kmh -- 30.09 in1019.0 mb 0.00 in0.0 mm 0.00 in0.0 mm 0.00 in0.0 mm
11:03 PM 22.5°F-5.3°C 18.1°F-7.7°C 83% 1.0 mph S1.6 kmh S -- 30.09 in1019.0 mb 0.00 in0.0 mm 0.00 in0.0 mm 0.00 in0.0 mm
11:08 PM 22.5°F-5.3°C 18.1°F-7.7°C 83% 3.0 mph W4.8 kmh W -- 30.08 in1018.6 mb 0.00 in0.0 mm 0.00 in0.0 mm 0.00 in0.0 mm
11:13 PM 22.5°F-5.3°C 18.1°F-7.7°C 83% 2.0 mph NE3.2 kmh NE -- 30.09 in1019.0 mb 0.00 in0.0 mm 0.00 in0.0 mm 0.00 in0.0 mm
11:18 PM 22.5°F-5.3°C 18.1°F-7.7°C 83% 2.0 mph E3.2 kmh E -- 30.09 in1019.0 mb 0.00 in0.0 mm 0.00 in0.0 mm 0.00 in0.0 mm
11:23 PM 22.6°F-5.2°C 18.2°F-7.7°C 83% 2.0 mph E3.2 kmh E -- 30.09 in1019.0 mb 0.00 in0.0 mm 0.00 in0.0 mm 0.00 in0.0 mm
11:28 PM 22.6°F-5.2°C 18.2°F-7.7°C 83% 4.0 mph E6.4 kmh E -- 30.09 in1019.0 mb 0.00 in0.0 mm 0.00 in0.0 mm 0.00 in0.0 mm
11:33 PM 22.6°F-5.2°C 18.2°F-7.7°C 83% 3.0 mph W4.8 kmh W -- 30.09 in1019.0 mb 0.00 in0.0 mm 0.00 in0.0 mm 0.00 in0.0 mm
11:38 PM 22.6°F-5.2°C 18.2°F-7.7°C 83% 2.0 mph ENE3.2 kmh ENE -- 30.09 in1019.0 mb 0.00 in0.0 mm 0.00 in0.0 mm 0.00 in0.0 mm
11:43 PM 22.6°F-5.2°C 18.2°F-7.7°C 83% 4.0 mph ESE6.4 kmh ESE -- 30.10 in1019.3 mb 0.00 in0.0 mm 0.00 in0.0 mm 0.00 in0.0 mm
11:48 PM 22.6°F-5.2°C 18.2°F-7.7°C 83% 3.0 mph NNE4.8 kmh NNE -- 30.10 in1019.3 mb 0.00 in0.0 mm 0.00 in0.0 mm 0.00 in0.0 mm
11:53 PM 22.6°F-5.2°C 18.2°F-7.7°C 83% 5.0 mph W8.0 kmh W -- 30.10 in1019.3 mb 0.00 in0.0 mm 0.00 in0.0 mm 0.00 in0.0 mm
11:58 PM 22.6°F-5.2°C 18.2°F-7.7°C 83% 5.0 mph SW8.0 kmh SW -- 30.10 in1019.3 mb 0.00 in0.0 mm 0.00 in0.0 mm 0.00 in0.0 mm